createdAt,value
2022-08-26T00:00:56.743Z,11.55
2022-08-26T00:03:31.783Z,11.30
2022-08-26T00:06:04.072Z,11.25
2022-08-26T00:08:37.248Z,11.77
2022-08-26T00:11:10.852Z,10.90
2022-08-26T00:13:47.844Z,11.85
2022-08-26T00:16:21.951Z,12.32
2022-08-26T00:18:56.669Z,11.65
2022-08-26T00:21:28.495Z,11.52
2022-08-26T00:24:00.785Z,12.60
2022-08-26T00:26:34.429Z,12.43
2022-08-26T00:29:06.949Z,11.93
2022-08-26T00:31:41.599Z,11.60
2022-08-26T00:34:19.426Z,12.38
2022-08-26T00:36:52.494Z,12.32
2022-08-26T00:39:26.309Z,12.65
2022-08-26T00:41:57.955Z,12.00
2022-08-26T00:44:32.352Z,12.30
2022-08-26T00:47:08.850Z,13.10
2022-08-26T00:49:48.562Z,12.30
2022-08-26T00:52:25.055Z,13.93
2022-08-26T00:55:05.875Z,12.82
2022-08-26T00:57:41.953Z,12.80
2022-08-26T01:00:19.754Z,12.63
2022-08-26T01:02:52.852Z,12.38
2022-08-26T01:05:29.422Z,12.98
2022-08-26T01:11:16.870Z,12.98
2022-08-26T01:13:50.606Z,12.65
2022-08-26T01:16:22.807Z,13.48
2022-08-26T01:18:58.722Z,13.73
2022-08-26T01:21:41.239Z,12.60
2022-08-26T01:24:15.727Z,12.55
2022-08-26T01:26:48.508Z,13.68
2022-08-26T01:29:23.134Z,13.75
2022-08-26T01:31:59.243Z,13.15
2022-08-26T01:34:36.330Z,11.98
2022-08-26T01:37:15.501Z,12.45
2022-08-26T01:39:54.382Z,14.05
2022-08-26T01:42:31.561Z,13.02
2022-08-26T01:45:09.246Z,13.07
2022-08-26T01:47:42.304Z,13.57
2022-08-26T01:50:27.669Z,13.05
2022-08-26T01:53:03.780Z,12.88
2022-08-26T01:55:40.882Z,13.23
2022-08-26T01:58:26.232Z,14.15
2022-08-26T02:01:00.666Z,13.70
2022-08-26T02:03:35.298Z,14.13
2022-08-26T02:06:12.573Z,13.98
2022-08-26T02:08:48.018Z,13.95
2022-08-26T02:11:25.066Z,13.65
2022-08-26T02:14:03.927Z,13.55
2022-08-26T02:16:39.905Z,13.88
2022-08-26T02:19:20.954Z,13.07
2022-08-26T02:21:57.129Z,13.95
2022-08-26T02:24:33.184Z,14.50
2022-08-26T02:27:08.306Z,14.27
2022-08-26T02:29:46.833Z,14.90
2022-08-26T02:32:22.147Z,14.23
2022-08-26T02:34:55.888Z,14.38
2022-08-26T02:37:32.753Z,14.60
2022-08-26T02:40:08.316Z,15.00
2022-08-26T02:42:43.133Z,15.68
2022-08-26T02:45:23.159Z,15.48
2022-08-26T02:47:56.855Z,15.50
2022-08-26T02:50:30.045Z,15.40
2022-08-26T02:53:02.094Z,16.00
2022-08-26T02:55:35.401Z,16.92
2022-08-26T02:58:10.077Z,15.70
2022-08-26T03:00:52.907Z,16.42
2022-08-26T03:03:26.685Z,14.73
2022-08-26T03:06:00.790Z,15.90
2022-08-26T03:08:34.679Z,15.95
2022-08-26T03:11:06.407Z,15.10
2022-08-26T03:13:41.087Z,16.30
2022-08-26T03:16:14.030Z,15.70
2022-08-26T03:18:52.314Z,15.73
2022-08-26T03:21:25.373Z,16.08
2022-08-26T03:23:58.797Z,16.65
2022-08-26T03:26:31.770Z,17.55
2022-08-26T03:29:18.880Z,16.77
2022-08-26T03:31:51.638Z,17.30
2022-08-26T03:34:24.643Z,16.85
2022-08-26T03:36:58.251Z,17.10
2022-08-26T03:39:31.582Z,17.08
2022-08-26T03:42:05.553Z,17.05
2022-08-26T03:44:42.129Z,17.90
2022-08-26T03:47:15.688Z,18.52
2022-08-26T03:49:47.766Z,18.02
2022-08-26T03:52:20.135Z,16.77
2022-08-26T03:54:52.267Z,16.83
2022-08-26T03:57:24.388Z,17.70
2022-08-26T03:59:59.305Z,16.75
2022-08-26T04:02:31.794Z,17.95
2022-08-26T04:05:03.731Z,18.33
2022-08-26T04:07:35.830Z,18.30
2022-08-26T04:10:08.106Z,18.27
2022-08-26T04:12:43.143Z,19.63
2022-08-26T04:15:20.525Z,19.45
2022-08-26T04:17:52.982Z,18.08
2022-08-26T04:20:25.267Z,18.73
2022-08-26T04:22:57.752Z,17.55
2022-08-26T04:25:32.062Z,19.75
2022-08-26T04:28:04.929Z,18.88
2022-08-26T04:30:40.602Z,20.23
2022-08-26T04:33:14.931Z,19.48
2022-08-26T04:35:46.965Z,19.27
2022-08-26T04:38:23.138Z,18.52
2022-08-26T04:40:55.057Z,17.55
2022-08-26T04:43:31.519Z,16.92
2022-08-26T04:46:09.798Z,16.55
2022-08-26T04:48:46.047Z,15.85
2022-08-26T04:51:17.928Z,16.08
2022-08-26T04:53:50.422Z,16.02
2022-08-26T04:56:22.299Z,16.13
2022-08-26T04:58:54.762Z,15.60
2022-08-26T05:01:32.762Z,15.57
2022-08-26T05:04:07.935Z,15.63
2022-08-26T05:06:39.983Z,16.38
2022-08-26T05:09:16.294Z,15.95
2022-08-26T05:11:55.364Z,15.95
2022-08-26T05:14:28.303Z,14.98
2022-08-26T05:17:03.127Z,15.10
2022-08-26T05:19:37.429Z,14.48
2022-08-26T05:22:15.095Z,14.77
2022-08-26T05:24:50.989Z,15.15
2022-08-26T05:27:23.669Z,14.23
2022-08-26T05:30:00.282Z,14.43
2022-08-26T05:32:36.368Z,14.90
2022-08-26T05:35:11.749Z,13.40
2022-08-26T05:37:44.298Z,13.90
2022-08-26T05:40:17.295Z,14.75
2022-08-26T05:42:51.727Z,13.40
2022-08-26T05:45:25.569Z,14.10
2022-08-26T05:48:02.200Z,16.35
2022-08-26T05:50:41.779Z,14.65
2022-08-26T05:53:18.740Z,14.38
2022-08-26T05:55:55.430Z,13.38
2022-08-26T05:58:29.049Z,13.30
2022-08-26T06:01:06.629Z,12.57
2022-08-26T06:03:42.768Z,12.45
2022-08-26T06:06:20.677Z,13.10
2022-08-26T06:09:00.530Z,13.35
2022-08-26T06:11:34.849Z,12.70
2022-08-26T06:14:09.269Z,13.10
2022-08-26T06:16:44.473Z,12.63
2022-08-26T06:19:19.548Z,12.02
2022-08-26T06:21:55.189Z,13.13
2022-08-26T06:24:39.168Z,12.13
2022-08-26T06:27:15.280Z,11.10
2022-08-26T06:29:47.428Z,11.45
2022-08-26T06:32:20.029Z,10.98
2022-08-26T06:34:54.889Z,10.43
2022-08-26T06:37:27.249Z,11.13
2022-08-26T06:39:59.294Z,10.13
2022-08-26T06:42:31.529Z,10.27
2022-08-26T06:45:03.258Z,11.00
2022-08-26T06:47:36.608Z,10.25
2022-08-26T06:50:11.988Z,10.07
2022-08-26T06:52:45.707Z,10.77
2022-08-26T06:55:17.688Z,9.93
2022-08-26T06:57:50.747Z,10.25
2022-08-26T07:00:28.399Z,10.40
2022-08-26T07:03:00.176Z,10.05
2022-08-26T07:05:35.953Z,10.48
2022-08-26T07:08:07.754Z,9.73
2022-08-26T07:10:41.421Z,9.85
2022-08-26T07:13:14.213Z,9.80
2022-08-26T07:15:45.671Z,9.65
2022-08-26T07:18:17.615Z,10.23
2022-08-26T07:20:56.044Z,10.93
2022-08-26T07:23:30.848Z,10.55
2022-08-26T07:26:07.229Z,9.98
2022-08-26T07:28:39.897Z,9.10
2022-08-26T07:31:13.477Z,8.98
2022-08-26T07:33:46.902Z,8.65
2022-08-26T07:36:24.532Z,8.77
2022-08-26T07:38:59.399Z,8.93
2022-08-26T07:41:33.992Z,9.25
2022-08-26T07:44:10.569Z,8.25
2022-08-26T07:46:44.664Z,9.07
2022-08-26T07:49:27.103Z,9.45
2022-08-26T07:52:03.906Z,9.00
2022-08-26T07:54:37.924Z,9.25
2022-08-26T07:57:10.443Z,9.88
2022-08-26T07:59:43.031Z,9.40
2022-08-26T08:02:15.511Z,9.70
2022-08-26T08:04:48.855Z,10.55
2022-08-26T08:07:25.757Z,10.05
2022-08-26T08:10:13.354Z,8.60
2022-08-26T08:12:45.862Z,9.02
2022-08-26T08:15:20.661Z,9.00
2022-08-26T08:17:54.054Z,9.65
2022-08-26T08:20:30.765Z,8.85
2022-08-26T08:23:07.383Z,8.70
2022-08-26T08:25:40.506Z,8.88
2022-08-26T08:28:13.023Z,8.60
2022-08-26T08:30:45.909Z,7.95
2022-08-26T08:33:18.122Z,7.95
2022-08-26T08:35:50.765Z,7.88
2022-08-26T08:38:25.384Z,8.05
2022-08-26T08:40:59.205Z,7.88
2022-08-26T08:43:41.829Z,8.65
2022-08-26T08:46:17.650Z,7.57
2022-08-26T08:48:57.230Z,7.95
2022-08-26T08:51:39.854Z,8.02
2022-08-26T08:54:14.910Z,9.48
2022-08-26T08:56:53.449Z,10.68
2022-08-26T08:59:27.831Z,10.00
2022-08-26T09:02:07.637Z,10.50
2022-08-26T09:05:06.172Z,8.30
2022-08-26T09:07:44.708Z,8.05
2022-08-26T09:10:35.536Z,6.97
2022-08-26T09:13:16.321Z,7.95
2022-08-26T09:15:56.792Z,7.90
2022-08-26T09:18:46.064Z,7.22
2022-08-26T09:21:20.450Z,7.68
2022-08-26T09:23:58.091Z,7.30
2022-08-26T09:26:45.450Z,7.43
2022-08-26T09:29:26.831Z,8.27
2022-08-26T09:32:21.413Z,8.65
2022-08-26T09:35:02.230Z,9.07
2022-08-26T09:40:38.689Z,8.63
2022-08-26T09:43:22.609Z,7.68
2022-08-26T09:45:59.689Z,7.35
2022-08-26T09:48:36.234Z,7.45
2022-08-26T09:51:27.574Z,7.43
2022-08-26T09:54:01.469Z,7.53
2022-08-26T09:56:37.379Z,8.43
2022-08-26T09:59:13.749Z,7.40
2022-08-26T10:01:47.538Z,7.53
2022-08-26T10:04:26.733Z,7.80
2022-08-26T10:07:02.108Z,7.35
2022-08-26T10:09:38.908Z,7.15
2022-08-26T10:12:16.149Z,6.75
2022-08-26T10:14:56.109Z,6.88
2022-08-26T10:17:33.498Z,7.80
2022-08-26T10:20:22.954Z,8.05
2022-08-26T10:23:02.835Z,6.63
2022-08-26T10:25:38.450Z,7.10
2022-08-26T10:28:18.991Z,7.03
2022-08-26T10:30:59.332Z,7.13
2022-08-26T10:33:31.610Z,7.22
2022-08-26T10:36:29.612Z,7.28
2022-08-26T10:39:03.852Z,7.88
2022-08-26T10:41:48.817Z,7.68
2022-08-26T10:44:23.083Z,7.55
2022-08-26T10:47:04.941Z,7.30
2022-08-26T10:49:37.088Z,7.53
2022-08-26T10:52:17.551Z,7.88
2022-08-26T10:54:56.488Z,7.75
2022-08-26T10:57:47.163Z,8.00
2022-08-26T11:00:35.187Z,7.63
2022-08-26T11:03:26.294Z,8.15
2022-08-26T11:06:33.742Z,7.70
2022-08-26T11:09:11.843Z,7.00
2022-08-26T11:11:53.891Z,7.82
2022-08-26T11:14:42.033Z,7.45
2022-08-26T11:18:04.893Z,7.88
2022-08-26T11:20:44.609Z,7.28
2022-08-26T11:23:52.856Z,7.90
2022-08-26T11:26:55.440Z,8.60
2022-08-26T11:30:01.429Z,8.27
2022-08-26T11:32:49.758Z,9.32
2022-08-26T11:35:53.814Z,8.30
2022-08-26T11:38:31.491Z,8.93
2022-08-26T11:41:13.410Z,8.70
2022-08-26T11:43:47.950Z,8.52
2022-08-26T11:46:29.029Z,8.30
2022-08-26T11:49:05.633Z,9.15
2022-08-26T11:51:41.937Z,6.13
2022-08-26T11:54:30.489Z,4.32
2022-08-26T11:57:12.090Z,4.13
2022-08-26T11:59:45.650Z,4.05
2022-08-26T12:02:20.910Z,3.97
2022-08-26T12:04:57.230Z,4.68
2022-08-26T12:07:33.578Z,5.15
2022-08-26T12:10:09.149Z,4.70
2022-08-26T12:12:42.979Z,5.20
2022-08-26T12:15:20.671Z,5.07
2022-08-26T12:17:55.232Z,5.45
2022-08-26T12:20:49.093Z,5.90
2022-08-26T12:23:30.431Z,5.15
2022-08-26T12:26:09.912Z,7.13
2022-08-26T12:28:47.890Z,5.82
2022-08-26T12:31:35.707Z,6.07
2022-08-26T12:34:12.759Z,6.28
2022-08-26T12:36:53.299Z,5.95
2022-08-26T12:39:35.729Z,6.05
2022-08-26T12:42:24.352Z,5.38
2022-08-26T12:45:04.190Z,5.63
2022-08-26T12:47:42.624Z,5.03
2022-08-26T12:50:23.198Z,5.50
2022-08-26T12:53:01.031Z,4.90
2022-08-26T12:55:47.596Z,4.93
2022-08-26T12:58:32.093Z,5.57
2022-08-26T13:01:23.998Z,5.32
2022-08-26T13:03:56.410Z,5.85
2022-08-26T13:06:32.150Z,6.32
2022-08-26T13:09:06.743Z,6.75
2022-08-26T13:12:03.169Z,7.72
2022-08-26T13:14:35.412Z,8.18
2022-08-26T13:17:07.858Z,8.30
2022-08-26T13:19:40.349Z,8.40
2022-08-26T13:22:17.910Z,9.88
2022-08-26T13:24:49.998Z,8.95
2022-08-26T13:27:27.550Z,9.55
2022-08-26T13:30:02.052Z,9.77
2022-08-26T13:32:34.632Z,9.82
2022-08-26T13:35:07.391Z,10.80
2022-08-26T13:37:39.991Z,12.57
2022-08-26T13:40:16.491Z,11.75
2022-08-26T13:42:51.790Z,12.07
2022-08-26T13:45:24.209Z,11.32
2022-08-26T13:47:56.813Z,12.35
2022-08-26T13:50:28.823Z,11.88
2022-08-26T13:53:01.110Z,11.48
2022-08-26T13:55:33.332Z,11.77
2022-08-26T13:58:08.779Z,12.20
2022-08-26T14:00:41.624Z,11.80
2022-08-26T14:03:14.558Z,10.77
2022-08-26T14:05:46.752Z,11.60
2022-08-26T14:08:19.653Z,11.13
2022-08-26T14:10:52.487Z,11.73
2022-08-26T14:13:28.031Z,11.70
2022-08-26T14:16:01.962Z,12.23
2022-08-26T14:18:41.646Z,12.55
2022-08-26T14:21:17.212Z,12.13
2022-08-26T14:23:49.791Z,12.40
2022-08-26T14:26:28.658Z,13.02
2022-08-26T14:29:06.313Z,12.75
2022-08-26T14:31:38.789Z,12.05
2022-08-26T14:34:11.570Z,10.82
2022-08-26T14:36:43.792Z,10.43
2022-08-26T14:39:18.027Z,10.70
2022-08-26T14:41:55.158Z,9.77
2022-08-26T14:44:34.733Z,9.75
2022-08-26T14:47:12.114Z,9.48
2022-08-26T14:49:45.019Z,10.10
2022-08-26T14:52:19.676Z,9.85
2022-08-26T14:54:48.592Z,10.55
2022-08-26T14:57:26.714Z,11.68
2022-08-26T15:00:03.018Z,12.80
2022-08-26T15:02:34.698Z,13.10
2022-08-26T15:05:14.395Z,12.88
2022-08-26T15:07:53.454Z,12.45
2022-08-26T15:10:28.389Z,13.38
2022-08-26T15:12:59.919Z,13.90
2022-08-26T15:15:34.853Z,13.95
2022-08-26T15:18:07.530Z,15.45
2022-08-26T15:20:39.311Z,16.92
2022-08-26T15:23:11.981Z,16.92
2022-08-26T15:25:48.622Z,17.05
2022-08-26T15:28:20.143Z,17.17
2022-08-26T15:30:58.527Z,16.65
2022-08-26T15:33:30.574Z,14.52
2022-08-26T15:36:03.714Z,14.80
2022-08-26T15:38:37.664Z,14.10
2022-08-26T15:41:11.056Z,13.85
2022-08-26T15:43:42.856Z,13.57
2022-08-26T15:46:17.903Z,13.48
2022-08-26T15:48:49.857Z,13.13
2022-08-26T15:51:27.117Z,13.60
2022-08-26T15:53:59.656Z,12.73
2022-08-26T15:56:33.407Z,13.38
2022-08-26T15:59:09.155Z,13.20
2022-08-26T16:01:44.494Z,13.82
2022-08-26T16:04:17.902Z,14.93
2022-08-26T16:06:53.375Z,14.40
2022-08-26T16:09:28.175Z,14.57
2022-08-26T16:12:03.282Z,14.27
2022-08-26T16:14:35.577Z,14.05
2022-08-26T16:17:10.418Z,14.93
2022-08-26T16:19:42.516Z,14.80
2022-08-26T16:22:14.615Z,14.40
2022-08-26T16:29:26.975Z,14.35
2022-08-26T16:31:59.397Z,14.25
2022-08-26T16:34:34.175Z,13.75
2022-08-26T16:37:06.995Z,13.90
2022-08-26T16:39:50.835Z,14.65
2022-08-26T16:42:35.576Z,14.45
2022-08-26T16:45:09.638Z,15.48
2022-08-26T16:47:42.175Z,16.67
2022-08-26T16:50:17.755Z,16.00
2022-08-26T16:52:55.610Z,15.98
2022-08-26T16:55:28.042Z,16.98
2022-08-26T16:58:00.815Z,18.75
2022-08-26T17:00:35.437Z,20.75
2022-08-26T17:03:07.842Z,20.88
2022-08-26T17:05:43.436Z,21.33
2022-08-26T17:08:27.375Z,21.60
2022-08-26T17:11:05.237Z,19.67
2022-08-26T17:13:39.514Z,19.88
2022-08-26T17:16:14.523Z,20.63
2022-08-26T17:18:47.578Z,20.20
2022-08-26T17:21:22.564Z,20.23
2022-08-26T17:23:55.018Z,20.77
2022-08-26T17:26:27.175Z,18.10
2022-08-26T17:29:00.356Z,19.67
2022-08-26T17:31:32.881Z,19.30
2022-08-26T17:34:05.795Z,19.52
2022-08-26T17:36:40.741Z,20.67
2022-08-26T17:39:13.735Z,20.25
2022-08-26T17:41:46.143Z,24.27
2022-08-26T17:44:18.534Z,21.88
2022-08-26T17:46:50.735Z,22.10
2022-08-26T17:49:23.255Z,21.80
2022-08-26T17:52:01.827Z,22.08
2022-08-26T17:54:34.676Z,33.05
2022-08-26T17:57:07.037Z,34.22
2022-08-26T17:59:43.294Z,24.38
2022-08-26T18:02:21.488Z,27.13
2022-08-26T18:04:58.615Z,26.35
2022-08-26T18:07:33.837Z,26.30
2022-08-26T18:10:18.856Z,30.02
2022-08-26T18:12:51.823Z,29.15
2022-08-26T18:15:24.704Z,30.88
2022-08-26T18:17:57.055Z,30.35
2022-08-26T18:20:29.936Z,33.20
2022-08-26T18:23:05.005Z,33.47
2022-08-26T18:25:37.837Z,30.67
2022-08-26T18:28:10.285Z,28.40
2022-08-26T18:30:45.735Z,30.80
2022-08-26T18:33:20.498Z,29.75
2022-08-26T18:35:57.776Z,27.52
2022-08-26T18:38:35.016Z,27.13
2022-08-26T18:41:08.276Z,28.80
2022-08-26T18:43:40.737Z,25.58
2022-08-26T18:46:14.389Z,26.40
2022-08-26T18:48:50.997Z,27.38
2022-08-26T18:51:26.279Z,26.73
2022-08-26T18:54:01.816Z,26.70
2022-08-26T18:56:34.895Z,26.92
2022-08-26T18:59:10.199Z,25.55
2022-08-26T19:01:46.897Z,25.73
2022-08-26T19:04:23.016Z,26.95
2022-08-26T19:06:56.676Z,27.02
2022-08-26T19:09:32.023Z,27.13
2022-08-26T19:12:05.300Z,26.65
2022-08-26T19:14:38.497Z,25.08
2022-08-26T19:17:10.911Z,26.98
2022-08-26T19:19:43.056Z,28.67
2022-08-26T19:22:17.877Z,28.40
2022-08-26T19:24:52.677Z,28.98
2022-08-26T19:27:24.956Z,29.92
2022-08-26T19:29:57.957Z,30.15
2022-08-26T19:32:30.475Z,29.75
2022-08-26T19:35:02.657Z,31.58
2022-08-26T19:37:35.296Z,32.47
2022-08-26T19:40:10.962Z,30.70
2022-08-26T19:42:43.185Z,30.73
2022-08-26T19:45:24.588Z,27.35
2022-08-26T19:47:59.661Z,29.85
2022-08-26T19:50:38.233Z,30.98
2022-08-26T19:53:13.682Z,32.67
2022-08-26T19:55:50.717Z,31.80
2022-08-26T19:58:22.836Z,33.40
2022-08-26T20:00:54.845Z,31.33
2022-08-26T20:03:27.612Z,30.25
2022-08-26T20:05:59.383Z,28.15
2022-08-26T20:08:34.339Z,27.27
2022-08-26T20:11:14.282Z,26.30
2022-08-26T20:13:50.885Z,25.42
2022-08-26T20:16:22.650Z,24.48
2022-08-26T20:19:06.636Z,24.10
2022-08-26T20:21:45.710Z,21.92
2022-08-26T20:24:26.737Z,22.10
2022-08-26T20:27:06.768Z,22.15
2022-08-26T20:29:41.505Z,22.60
2022-08-26T20:32:32.611Z,22.13
2022-08-26T20:35:09.016Z,22.27
2022-08-26T20:37:43.959Z,22.88
2022-08-26T20:40:22.545Z,22.13
2022-08-26T20:42:57.059Z,20.85
2022-08-26T20:45:29.168Z,22.05
2022-08-26T20:48:04.374Z,22.60
2022-08-26T20:50:37.851Z,22.40
2022-08-26T20:53:11.522Z,23.23
2022-08-26T20:55:51.786Z,22.17
2022-08-26T20:58:27.031Z,23.65
2022-08-26T21:01:08.072Z,22.85
2022-08-26T21:03:41.427Z,24.10
2022-08-26T21:06:22.574Z,25.42
2022-08-26T21:09:02.689Z,24.27
2022-08-26T21:11:38.542Z,25.38
2022-08-26T21:14:16.013Z,24.60
2022-08-26T21:16:50.354Z,22.50
2022-08-26T21:19:24.975Z,22.60
2022-08-26T21:21:57.194Z,22.42
2022-08-26T21:24:31.954Z,22.48
2022-08-26T21:27:06.332Z,19.52
2022-08-26T21:29:42.201Z,19.55
2022-08-26T21:32:17.365Z,18.10
2022-08-26T21:34:54.915Z,18.55
2022-08-26T21:37:27.552Z,18.88
2022-08-26T21:40:04.409Z,17.73
2022-08-26T21:42:43.267Z,16.00
2022-08-26T21:45:20.281Z,16.65
2022-08-26T21:47:53.845Z,15.38
2022-08-26T21:50:30.100Z,15.05
2022-08-26T21:53:04.220Z,16.55
2022-08-26T21:55:39.144Z,17.05
2022-08-26T21:58:11.881Z,18.05
2022-08-26T22:00:53.455Z,17.75
2022-08-26T22:03:28.648Z,18.35
2022-08-26T22:06:04.087Z,17.17
2022-08-26T22:08:38.625Z,17.95
2022-08-26T22:11:10.666Z,16.73
2022-08-26T22:13:44.615Z,17.73
2022-08-26T22:16:19.710Z,18.75
2022-08-26T22:18:53.875Z,19.30
2022-08-26T22:21:28.284Z,21.77
2022-08-26T22:24:01.034Z,19.40
2022-08-26T22:26:35.524Z,22.42
2022-08-26T22:29:08.558Z,22.15
2022-08-26T22:31:43.741Z,20.17
2022-08-26T22:34:20.734Z,19.90
2022-08-26T22:36:54.536Z,20.58
2022-08-26T22:39:29.634Z,20.00
2022-08-26T22:42:04.275Z,19.55
2022-08-26T22:44:37.286Z,21.10
2022-08-26T22:47:12.067Z,20.63
2022-08-26T22:49:44.634Z,21.83
2022-08-26T22:52:17.418Z,22.02
2022-08-26T22:54:50.085Z,22.20
2022-08-26T22:57:24.386Z,23.50
2022-08-26T22:59:57.104Z,22.45
2022-08-26T23:02:31.944Z,22.45
2022-08-26T23:05:04.415Z,21.80
2022-08-26T23:07:37.092Z,22.33
2022-08-26T23:10:12.174Z,22.17
2022-08-26T23:12:44.425Z,22.67
2022-08-26T23:15:16.775Z,23.13
2022-08-26T23:17:58.333Z,22.67
2022-08-26T23:20:32.575Z,22.88
2022-08-26T23:23:05.289Z,22.42
2022-08-26T23:25:38.125Z,22.02
2022-08-26T23:28:13.446Z,21.55
2022-08-26T23:30:45.825Z,22.30
2022-08-26T23:33:20.715Z,23.23
2022-08-26T23:35:51.236Z,23.17
2022-08-26T23:38:23.405Z,22.13
2022-08-26T23:40:56.075Z,22.33
2022-08-26T23:43:29.924Z,21.45
2022-08-26T23:46:02.244Z,21.63
2022-08-26T23:48:36.934Z,22.52
2022-08-26T23:51:22.006Z,22.25
2022-08-26T23:53:54.686Z,22.35
2022-08-26T23:56:27.626Z,22.13
2022-08-26T23:58:59.715Z,22.38
